createdAt,value
2018-08-22T00:01:27.077Z,17.20
2018-08-22T00:03:57.916Z,17.10
2018-08-22T00:06:29.636Z,17.10
2018-08-22T00:08:59.213Z,17.00
2018-08-22T00:11:28.864Z,17.00
2018-08-22T00:13:58.375Z,17.00
2018-08-22T00:16:28.395Z,16.90
2018-08-22T00:18:58.217Z,16.90
2018-08-22T00:21:27.652Z,16.90
2018-08-22T00:23:57.958Z,16.90
2018-08-22T00:26:29.966Z,16.90
2018-08-22T00:28:59.835Z,16.90
2018-08-22T00:31:30.408Z,16.90
2018-08-22T00:33:59.947Z,16.90
2018-08-22T00:36:29.782Z,16.90
2018-08-22T00:38:59.139Z,17.00
2018-08-22T00:41:28.955Z,17.00
2018-08-22T00:44:01.195Z,17.00
2018-08-22T00:46:30.765Z,17.00
2018-08-22T00:49:00.973Z,16.90
2018-08-22T00:51:30.885Z,16.90
2018-08-22T00:54:00.583Z,16.80
2018-08-22T00:56:31.145Z,16.80
2018-08-22T00:59:00.739Z,16.80
2018-08-22T01:01:30.357Z,16.70
2018-08-22T01:03:59.615Z,16.70
2018-08-22T01:06:29.077Z,16.70
2018-08-22T01:08:58.408Z,16.60
2018-08-22T01:11:27.875Z,16.60
2018-08-22T01:13:57.381Z,16.50
2018-08-22T01:16:33.368Z,16.30
2018-08-22T01:19:02.956Z,16.30
2018-08-22T01:21:33.833Z,16.30
2018-08-22T01:24:03.313Z,16.30
2018-08-22T01:26:33.009Z,16.20
2018-08-22T01:29:03.251Z,16.20
2018-08-22T01:31:32.865Z,16.20
2018-08-22T01:34:03.349Z,16.20
2018-08-22T01:36:33.565Z,16.10
2018-08-22T01:39:03.129Z,16.10
2018-08-22T01:41:33.063Z,15.90
2018-08-22T01:44:02.709Z,15.80
2018-08-22T01:46:32.541Z,15.80
2018-08-22T01:49:02.343Z,15.80
2018-08-22T01:51:32.463Z,15.60
2018-08-22T01:54:02.864Z,15.60
2018-08-22T01:56:32.846Z,15.50
2018-08-22T01:59:03.015Z,15.40
2018-08-22T02:01:32.608Z,15.40
2018-08-22T02:04:02.198Z,15.40
2018-08-22T02:06:31.797Z,15.30
2018-08-22T02:09:01.446Z,15.30
2018-08-22T02:11:31.488Z,15.40
2018-08-22T02:14:01.974Z,15.40
2018-08-22T02:16:31.420Z,15.40
2018-08-22T02:19:01.419Z,15.50
2018-08-22T02:21:31.730Z,15.40
2018-08-22T02:24:02.062Z,15.40
2018-08-22T02:26:31.370Z,15.30
2018-08-22T02:29:01.886Z,15.30
2018-08-22T02:31:32.625Z,15.30
2018-08-22T02:34:03.301Z,15.30
2018-08-22T02:36:32.943Z,15.20
2018-08-22T02:39:03.046Z,15.20
2018-08-22T02:41:33.426Z,15.20
2018-08-22T02:44:03.108Z,15.20
2018-08-22T02:46:32.731Z,15.10
2018-08-22T02:49:03.080Z,15.10
2018-08-22T02:51:33.094Z,15.10
2018-08-22T02:54:04.004Z,15.10
2018-08-22T02:56:34.336Z,15.00
2018-08-22T02:59:05.358Z,15.10
2018-08-22T03:01:35.022Z,15.00
2018-08-22T03:04:04.654Z,15.00
2018-08-22T03:06:34.868Z,15.10
2018-08-22T03:09:06.049Z,15.10
2018-08-22T03:11:35.788Z,15.10
2018-08-22T03:14:05.986Z,15.30
2018-08-22T03:16:35.593Z,15.40
2018-08-22T03:19:06.427Z,15.50
2018-08-22T03:21:36.277Z,15.60
2018-08-22T03:24:06.751Z,15.70
2018-08-22T03:26:36.157Z,15.70
2018-08-22T03:29:06.365Z,15.70
2018-08-22T03:31:36.233Z,15.70
2018-08-22T03:34:06.283Z,15.70
2018-08-22T03:36:36.579Z,15.70
2018-08-22T03:39:07.679Z,15.70
2018-08-22T03:41:37.853Z,15.70
2018-08-22T03:44:07.475Z,15.80
2018-08-22T03:46:37.107Z,15.80
2018-08-22T03:49:06.942Z,15.80
2018-08-22T03:51:37.619Z,15.80
2018-08-22T03:54:07.241Z,15.70
2018-08-22T03:56:37.585Z,15.70
2018-08-22T03:59:07.681Z,15.60
2018-08-22T04:01:38.415Z,15.50
2018-08-22T04:04:08.780Z,15.50
2018-08-22T04:06:38.883Z,15.40
2018-08-22T04:09:10.131Z,15.40
2018-08-22T04:11:41.256Z,15.30
2018-08-22T04:14:11.003Z,15.20
2018-08-22T04:16:40.795Z,15.20
2018-08-22T04:19:10.917Z,15.10
2018-08-22T04:21:42.009Z,15.10
2018-08-22T04:24:11.611Z,15.00
2018-08-22T04:26:41.243Z,15.00
2018-08-22T04:29:11.414Z,15.00
2018-08-22T04:31:41.323Z,15.00
2018-08-22T04:34:11.069Z,14.90
2018-08-22T04:36:41.283Z,14.90
2018-08-22T04:39:11.585Z,14.80
2018-08-22T04:41:42.259Z,14.80
2018-08-22T04:44:12.401Z,14.80
2018-08-22T04:46:42.600Z,14.80
2018-08-22T04:49:14.707Z,14.70
2018-08-22T04:51:45.928Z,14.70
2018-08-22T04:57:19.704Z,14.60
2018-08-22T04:59:49.419Z,14.60
2018-08-22T05:05:21.452Z,14.60
2018-08-22T05:07:51.694Z,14.80
2018-08-22T05:10:21.632Z,15.00
2018-08-22T05:12:52.466Z,15.20
2018-08-22T05:15:24.684Z,15.40
2018-08-22T05:17:54.385Z,15.60
2018-08-22T05:20:27.229Z,15.70
2018-08-22T05:22:57.307Z,15.70
2018-08-22T05:25:28.008Z,15.80
2018-08-22T05:27:57.838Z,15.90
2018-08-22T05:30:27.938Z,16.00
2018-08-22T05:32:57.606Z,16.00
2018-08-22T05:35:29.148Z,16.10
2018-08-22T05:37:59.920Z,16.10
2018-08-22T05:40:30.877Z,16.20
2018-08-22T05:43:00.556Z,16.20
2018-08-22T05:45:30.282Z,16.30
2018-08-22T05:47:59.956Z,16.30
2018-08-22T05:50:29.882Z,16.40
2018-08-22T05:53:00.156Z,16.40
2018-08-22T05:55:31.634Z,16.40
2018-08-22T05:58:01.509Z,16.50
2018-08-22T06:00:31.012Z,16.50
2018-08-22T06:03:00.781Z,16.60
2018-08-22T06:05:31.000Z,16.60
2018-08-22T06:08:00.612Z,16.70
2018-08-22T06:10:30.661Z,16.70
2018-08-22T06:13:00.355Z,16.80
2018-08-22T06:15:30.666Z,16.90
2018-08-22T06:18:00.643Z,16.90
2018-08-22T06:20:31.271Z,17.00
2018-08-22T06:23:01.105Z,17.00
2018-08-22T06:25:30.947Z,17.10
2018-08-22T06:28:00.959Z,17.10
2018-08-22T06:30:31.476Z,17.20
2018-08-22T06:33:01.258Z,17.30
2018-08-22T06:35:31.028Z,17.30
2018-08-22T06:38:00.681Z,17.30
2018-08-22T06:40:31.213Z,17.40
2018-08-22T06:43:01.451Z,17.40
2018-08-22T06:45:31.348Z,17.60
2018-08-22T06:48:01.256Z,17.60
2018-08-22T06:50:32.220Z,17.70
2018-08-22T06:53:01.871Z,17.80
2018-08-22T06:55:31.533Z,17.90
2018-08-22T06:58:01.353Z,18.00
2018-08-22T07:00:31.055Z,18.00
2018-08-22T07:03:00.437Z,18.10
2018-08-22T07:05:29.975Z,18.10
2018-08-22T07:07:59.561Z,18.10
2018-08-22T07:10:29.397Z,18.20
2018-08-22T07:12:58.801Z,18.30
2018-08-22T07:15:28.517Z,18.40
2018-08-22T07:17:58.105Z,18.50
2018-08-22T07:20:27.833Z,18.50
2018-08-22T07:22:57.393Z,18.50
2018-08-22T07:25:26.781Z,18.60
2018-08-22T07:27:56.493Z,18.60
2018-08-22T07:30:26.908Z,18.60
2018-08-22T07:32:57.504Z,18.60
2018-08-22T07:35:27.852Z,18.70
2018-08-22T07:37:57.838Z,18.80
2018-08-22T07:40:28.071Z,18.80
2018-08-22T07:42:57.755Z,18.90
2018-08-22T07:45:28.751Z,18.90
2018-08-22T07:47:59.127Z,19.00
2018-08-22T07:50:29.909Z,19.10
2018-08-22T07:53:04.562Z,19.20
2018-08-22T07:55:40.698Z,19.30
2018-08-22T07:58:10.260Z,19.30
2018-08-22T08:00:40.262Z,19.30
2018-08-22T08:03:09.831Z,19.30
2018-08-22T08:05:39.475Z,19.30
2018-08-22T08:08:09.578Z,19.30
2018-08-22T08:10:39.370Z,19.20
2018-08-22T08:13:15.612Z,19.10
2018-08-22T08:15:45.299Z,19.10
2018-08-22T08:18:15.007Z,19.10
2018-08-22T08:20:45.915Z,19.10
2018-08-22T08:23:15.306Z,19.10
2018-08-22T08:25:45.428Z,19.10
2018-08-22T08:28:15.113Z,19.20
2018-08-22T08:30:44.508Z,19.20
2018-08-22T08:33:14.095Z,19.30
2018-08-22T08:35:43.768Z,19.40
2018-08-22T08:38:13.882Z,19.40
2018-08-22T08:40:44.192Z,19.50
2018-08-22T08:43:14.404Z,19.60
2018-08-22T08:45:44.114Z,19.70
2018-08-22T08:48:13.447Z,19.80
2018-08-22T08:50:43.151Z,19.90
2018-08-22T08:53:12.727Z,19.90
2018-08-22T08:55:42.569Z,19.90
2018-08-22T08:58:12.858Z,20.10
2018-08-22T09:00:43.354Z,20.10
2018-08-22T09:03:13.743Z,20.10
2018-08-22T09:05:43.325Z,20.20
2018-08-22T09:08:13.816Z,20.30
2018-08-22T09:10:44.030Z,20.30
2018-08-22T09:13:14.468Z,20.30
2018-08-22T09:15:44.237Z,20.40
2018-08-22T09:18:13.940Z,20.50
2018-08-22T09:20:43.461Z,20.50
2018-08-22T09:23:13.569Z,20.50
2018-08-22T09:25:44.384Z,20.60
2018-08-22T09:28:14.436Z,20.70
2018-08-22T09:30:44.778Z,20.80
2018-08-22T09:38:13.883Z,20.90
2018-08-22T09:40:43.869Z,21.00
2018-08-22T09:43:13.424Z,21.00
2018-08-22T09:45:42.925Z,21.00
2018-08-22T09:48:12.896Z,21.10
2018-08-22T09:50:42.626Z,21.20
2018-08-22T09:53:12.536Z,21.10
2018-08-22T09:55:41.936Z,21.10
2018-08-22T09:58:13.031Z,21.10
2018-08-22T10:00:48.038Z,21.20
2018-08-22T10:03:18.007Z,21.30
2018-08-22T10:05:47.327Z,21.20
2018-08-22T10:08:17.440Z,21.30
2018-08-22T10:10:47.211Z,21.40
2018-08-22T10:13:16.930Z,21.50
2018-08-22T10:15:47.217Z,21.60
2018-08-22T10:18:17.673Z,21.60
2018-08-22T10:20:47.747Z,21.70
2018-08-22T10:23:17.351Z,21.70
2018-08-22T10:25:47.465Z,21.70
2018-08-22T10:28:17.428Z,21.70
2018-08-22T10:30:47.752Z,21.80
2018-08-22T10:33:18.096Z,22.00
2018-08-22T10:35:47.661Z,22.30
2018-08-22T10:38:17.505Z,22.50
2018-08-22T10:40:46.986Z,22.40
2018-08-22T10:43:16.591Z,22.30
2018-08-22T10:45:46.280Z,22.20
2018-08-22T10:48:15.716Z,22.10
2018-08-22T10:50:45.350Z,22.10
2018-08-22T10:53:14.891Z,22.10
2018-08-22T10:55:44.696Z,22.10
2018-08-22T10:58:19.043Z,22.30
2018-08-22T11:00:49.186Z,22.30
2018-08-22T11:03:19.398Z,22.40
2018-08-22T11:05:49.006Z,22.60
2018-08-22T11:08:19.353Z,22.80
2018-08-22T11:10:49.548Z,22.90
2018-08-22T11:13:19.201Z,22.80
2018-08-22T11:15:49.670Z,22.80
2018-08-22T11:18:19.137Z,22.80
2018-08-22T11:20:50.972Z,22.80
2018-08-22T11:23:32.283Z,23.00
2018-08-22T11:26:13.541Z,23.10
2018-08-22T11:28:54.184Z,23.30
2018-08-22T11:31:34.794Z,23.20
2018-08-22T11:34:15.272Z,23.10
2018-08-22T11:36:54.726Z,23.10
2018-08-22T11:39:24.786Z,23.10
2018-08-22T11:41:54.680Z,23.30
2018-08-22T11:44:24.198Z,23.40
2018-08-22T11:46:53.729Z,23.40
2018-08-22T11:49:23.785Z,23.10
2018-08-22T11:51:53.250Z,23.10
2018-08-22T11:54:22.908Z,23.00
2018-08-22T11:56:52.419Z,23.10
2018-08-22T11:59:22.029Z,23.20
2018-08-22T12:01:51.995Z,23.40
2018-08-22T12:04:21.718Z,23.30
2018-08-22T12:06:51.772Z,23.40
2018-08-22T12:09:21.532Z,23.30
2018-08-22T12:11:52.704Z,23.30
2018-08-22T12:14:22.618Z,23.20
2018-08-22T12:16:52.417Z,23.10
2018-08-22T12:19:22.202Z,23.10
2018-08-22T12:21:52.035Z,23.10
2018-08-22T12:24:21.490Z,23.10
2018-08-22T12:26:51.039Z,23.20
2018-08-22T12:29:21.263Z,23.10
2018-08-22T12:31:52.002Z,23.20
2018-08-22T12:34:22.044Z,23.30
2018-08-22T12:36:52.278Z,23.40
2018-08-22T12:39:22.211Z,23.50
2018-08-22T12:41:52.814Z,23.40
2018-08-22T12:44:23.286Z,23.50
2018-08-22T12:46:53.579Z,23.60
2018-08-22T12:49:23.047Z,23.70
2018-08-22T12:51:52.519Z,23.80
2018-08-22T12:54:22.314Z,23.90
2018-08-22T12:56:51.689Z,24.00
2018-08-22T12:59:21.176Z,23.80
2018-08-22T13:01:51.649Z,23.90
2018-08-22T13:04:21.272Z,24.00
2018-08-22T13:06:52.546Z,24.20
2018-08-22T13:09:22.087Z,24.40
2018-08-22T13:11:52.002Z,24.50
2018-08-22T13:14:22.052Z,24.60
2018-08-22T13:16:51.602Z,24.50
2018-08-22T13:19:22.656Z,24.50
2018-08-22T13:21:53.239Z,24.40
2018-08-22T13:24:22.830Z,24.10
2018-08-22T13:26:52.444Z,24.10
2018-08-22T13:29:23.390Z,24.00
2018-08-22T13:31:53.729Z,24.20
2018-08-22T13:34:23.834Z,24.30
2018-08-22T13:36:53.364Z,24.00
2018-08-22T13:39:23.692Z,23.90
2018-08-22T13:41:53.337Z,23.90
2018-08-22T13:44:23.185Z,23.70
2018-08-22T13:46:53.545Z,23.70
2018-08-22T13:49:23.200Z,23.80
2018-08-22T13:52:03.079Z,23.70
2018-08-22T13:54:32.942Z,23.60
2018-08-22T13:57:02.498Z,23.70
2018-08-22T13:59:32.059Z,23.70
2018-08-22T14:02:01.590Z,23.70
2018-08-22T14:04:31.141Z,23.70
2018-08-22T14:07:00.625Z,23.70
2018-08-22T14:09:30.429Z,23.70
2018-08-22T14:11:59.942Z,23.70
2018-08-22T14:14:29.655Z,23.50
2018-08-22T14:16:59.690Z,23.50
2018-08-22T14:19:29.380Z,23.40
2018-08-22T14:21:58.924Z,23.50
2018-08-22T14:24:28.568Z,23.40
2018-08-22T14:26:58.291Z,23.30
2018-08-22T14:29:27.828Z,23.40
2018-08-22T14:31:58.688Z,23.70
2018-08-22T14:34:28.260Z,23.70
2018-08-22T14:36:59.825Z,23.70
2018-08-22T14:39:29.439Z,23.70
2018-08-22T14:41:59.110Z,23.80
2018-08-22T14:44:28.900Z,24.20
2018-08-22T14:46:58.530Z,24.30
2018-08-22T14:49:28.693Z,24.50
2018-08-22T14:51:58.447Z,24.60
2018-08-22T14:54:28.335Z,24.50
2018-08-22T14:56:58.550Z,24.60
2018-08-22T14:59:28.331Z,24.90
2018-08-22T15:01:58.172Z,24.90
2018-08-22T15:04:27.809Z,25.10
2018-08-22T15:06:59.505Z,25.40
2018-08-22T15:09:30.131Z,25.50
2018-08-22T15:11:59.981Z,25.40
2018-08-22T15:14:30.298Z,25.60
2018-08-22T15:17:00.462Z,25.70
2018-08-22T15:19:30.303Z,25.80
2018-08-22T15:22:00.806Z,25.70
2018-08-22T15:24:31.524Z,25.40
2018-08-22T15:27:01.470Z,25.40
2018-08-22T15:29:31.235Z,25.40
2018-08-22T15:32:01.438Z,25.50
2018-08-22T15:34:43.053Z,25.80
2018-08-22T15:37:12.904Z,26.00
2018-08-22T15:39:42.251Z,26.20
2018-08-22T15:42:12.028Z,26.20
2018-08-22T15:44:42.364Z,26.20
2018-08-22T15:47:12.699Z,26.00
2018-08-22T15:49:42.491Z,25.60
2018-08-22T15:52:12.472Z,25.40
2018-08-22T15:54:42.193Z,25.40
2018-08-22T15:57:12.244Z,25.20
2018-08-22T15:59:41.972Z,25.20
2018-08-22T16:02:12.463Z,25.40
2018-08-22T16:04:53.646Z,25.70
2018-08-22T16:07:23.275Z,26.00
2018-08-22T16:09:53.602Z,26.20
2018-08-22T16:12:23.674Z,26.30
2018-08-22T16:14:54.058Z,26.40
2018-08-22T16:17:23.798Z,26.40
2018-08-22T16:19:53.436Z,26.20
2018-08-22T16:22:23.333Z,26.00
2018-08-22T16:24:52.956Z,26.00
2018-08-22T16:27:22.708Z,25.80
2018-08-22T16:29:52.343Z,25.70
2018-08-22T16:32:23.103Z,25.40
2018-08-22T16:34:52.845Z,25.10
2018-08-22T16:37:22.859Z,24.80
2018-08-22T16:39:53.285Z,24.60
2018-08-22T16:42:27.322Z,24.40
2018-08-22T16:44:57.029Z,24.30
2018-08-22T16:47:31.071Z,24.30
2018-08-22T16:50:00.803Z,24.40
2018-08-22T16:52:30.307Z,24.20
2018-08-22T16:55:19.237Z,24.10
2018-08-22T16:57:49.824Z,24.00
2018-08-22T17:00:32.363Z,24.00
2018-08-22T17:03:03.713Z,23.90
2018-08-22T17:05:33.856Z,23.90
2018-08-22T17:08:03.584Z,23.70
2018-08-22T17:10:50.309Z,23.60
2018-08-22T17:13:31.929Z,23.50
2018-08-22T17:16:02.340Z,23.40
2018-08-22T17:18:33.246Z,23.30
2018-08-22T17:21:03.124Z,23.20
2018-08-22T17:23:32.919Z,23.10
2018-08-22T17:26:03.186Z,23.10
2018-08-22T17:28:39.955Z,22.90
2018-08-22T17:31:10.744Z,22.80
2018-08-22T17:33:44.077Z,22.80
2018-08-22T17:36:13.794Z,22.80
2018-08-22T17:38:45.719Z,22.70
2018-08-22T17:41:17.311Z,22.70
2018-08-22T17:44:05.028Z,22.70
2018-08-22T17:46:35.816Z,22.60
2018-08-22T17:49:05.651Z,22.50
2018-08-22T17:52:10.943Z,22.40
2018-08-22T17:54:40.415Z,22.30
2018-08-22T17:57:19.170Z,22.20
2018-08-22T17:59:49.569Z,22.10
2018-08-22T18:02:18.967Z,22.00
2018-08-22T18:05:00.843Z,21.90
2018-08-22T18:07:31.505Z,21.80
2018-08-22T18:10:03.195Z,21.60
2018-08-22T18:12:32.993Z,21.50
2018-08-22T18:15:04.091Z,21.40
2018-08-22T18:17:34.751Z,21.30
2018-08-22T18:20:04.996Z,21.20
2018-08-22T18:22:36.133Z,21.10
2018-08-22T18:25:06.024Z,21.00
2018-08-22T18:27:35.786Z,20.90
2018-08-22T18:30:06.550Z,20.70
2018-08-22T18:32:36.739Z,20.70
2018-08-22T18:35:24.506Z,20.60
2018-08-22T18:37:54.805Z,20.50
2018-08-22T18:40:31.004Z,20.40
2018-08-22T18:43:04.431Z,20.30
2018-08-22T18:45:34.250Z,20.20
2018-08-22T18:48:06.255Z,20.20
2018-08-22T18:50:36.314Z,20.00
2018-08-22T18:53:06.431Z,20.00
2018-08-22T18:55:36.407Z,19.90
2018-08-22T18:58:06.911Z,19.80
2018-08-22T19:00:37.882Z,19.70
2018-08-22T19:03:08.557Z,19.60
2018-08-22T19:05:38.983Z,19.50
2018-08-22T19:08:12.465Z,19.40
2018-08-22T19:10:43.889Z,19.20
2018-08-22T19:13:16.261Z,19.10
2018-08-22T19:15:51.467Z,19.00
2018-08-22T19:18:21.638Z,18.90
2018-08-22T19:20:53.237Z,18.70
2018-08-22T19:23:23.027Z,18.60
2018-08-22T19:25:53.466Z,18.50
2018-08-22T19:28:23.744Z,18.50
2018-08-22T19:30:54.260Z,18.30
2018-08-22T19:33:24.963Z,18.20
2018-08-22T19:35:55.196Z,18.20
2018-08-22T19:38:26.931Z,18.00
2018-08-22T19:40:57.316Z,18.00
2018-08-22T19:43:27.915Z,17.90
2018-08-22T19:45:57.642Z,17.80
2018-08-22T19:48:28.096Z,17.70
2018-08-22T19:50:58.473Z,17.60
2018-08-22T19:53:28.794Z,17.60
2018-08-22T19:55:58.442Z,17.50
2018-08-22T19:58:34.156Z,17.40
2018-08-22T20:01:04.821Z,17.30
2018-08-22T20:03:36.737Z,17.20
2018-08-22T20:06:06.677Z,17.10
2018-08-22T20:08:38.398Z,17.10
2018-08-22T20:11:08.540Z,17.00
2018-08-22T20:13:48.993Z,17.10
2018-08-22T20:16:20.575Z,17.00
2018-08-22T20:18:53.450Z,16.90
2018-08-22T20:21:28.281Z,16.90
2018-08-22T20:23:57.888Z,16.80
2018-08-22T20:26:28.010Z,16.80
2018-08-22T20:29:11.535Z,16.80
2018-08-22T20:31:41.917Z,16.70
2018-08-22T20:34:13.891Z,16.70
2018-08-22T20:36:47.989Z,16.60
2018-08-22T20:39:17.963Z,16.60
2018-08-22T20:41:49.327Z,16.50
2018-08-22T20:44:20.253Z,16.50
2018-08-22T20:46:50.643Z,16.40
2018-08-22T20:49:21.102Z,16.40
2018-08-22T20:51:51.670Z,16.30
2018-08-22T20:54:22.984Z,16.20
2018-08-22T20:56:57.833Z,16.10
2018-08-22T20:59:29.291Z,16.10
2018-08-22T21:02:09.135Z,16.00
2018-08-22T21:04:39.534Z,16.00
2018-08-22T21:07:10.169Z,15.90
2018-08-22T21:09:42.014Z,15.90
2018-08-22T21:12:11.506Z,15.80
2018-08-22T21:14:41.219Z,15.70
2018-08-22T21:17:10.982Z,15.70
2018-08-22T21:19:41.046Z,15.70
2018-08-22T21:22:29.710Z,15.60
2018-08-22T21:25:00.899Z,15.60
2018-08-22T21:27:31.219Z,15.60
2018-08-22T21:30:01.675Z,15.60
2018-08-22T21:32:32.120Z,15.50
2018-08-22T21:35:05.400Z,15.50
2018-08-22T21:37:34.829Z,15.40
2018-08-22T21:40:04.672Z,15.50
2018-08-22T21:42:36.224Z,15.40
2018-08-22T21:45:06.382Z,15.30
2018-08-22T21:47:36.312Z,15.30
2018-08-22T21:50:06.391Z,15.20
2018-08-22T21:52:53.295Z,15.20
2018-08-22T21:55:28.289Z,15.10
2018-08-22T21:57:57.869Z,15.10
2018-08-22T22:00:28.699Z,15.10
2018-08-22T22:02:58.693Z,15.10
2018-08-22T22:05:39.466Z,15.00
2018-08-22T22:08:10.195Z,15.00
2018-08-22T22:10:40.147Z,15.00
2018-08-22T22:13:10.572Z,14.90
2018-08-22T22:15:47.461Z,14.90
2018-08-22T22:18:18.428Z,14.90
2018-08-22T22:20:50.496Z,14.90
2018-08-22T22:23:19.922Z,14.80
2018-08-22T22:25:50.413Z,14.80
2018-08-22T22:28:23.275Z,14.80
2018-08-22T22:30:52.933Z,14.80
2018-08-22T22:33:23.480Z,14.70
2018-08-22T22:35:53.101Z,14.70
2018-08-22T22:38:22.833Z,14.70
2018-08-22T22:40:52.281Z,14.70
2018-08-22T22:43:23.388Z,14.60
2018-08-22T22:45:53.225Z,14.60
2018-08-22T22:48:33.929Z,14.60
2018-08-22T22:51:04.011Z,14.60
2018-08-22T22:53:34.180Z,14.60
2018-08-22T22:56:04.506Z,14.60
2018-08-22T22:58:35.749Z,14.60
2018-08-22T23:01:05.655Z,14.60
2018-08-22T23:03:35.460Z,14.50
2018-08-22T23:06:05.762Z,14.60
2018-08-22T23:08:36.290Z,14.60
2018-08-22T23:11:06.660Z,14.50
2018-08-22T23:13:36.784Z,14.50
2018-08-22T23:16:06.669Z,14.50
2018-08-22T23:18:37.955Z,14.50
2018-08-22T23:21:07.406Z,14.50
2018-08-22T23:23:38.727Z,14.40
2018-08-22T23:26:15.639Z,14.40
2018-08-22T23:28:45.583Z,14.40
2018-08-22T23:31:21.025Z,14.40
2018-08-22T23:33:50.595Z,14.40
2018-08-22T23:36:19.991Z,14.40
2018-08-22T23:38:49.801Z,14.40
2018-08-22T23:41:19.331Z,14.40
2018-08-22T23:43:52.242Z,14.40
2018-08-22T23:46:22.812Z,14.40
2018-08-22T23:48:56.775Z,14.30
2018-08-22T23:51:26.567Z,14.30
2018-08-22T23:53:58.750Z,14.30
2018-08-22T23:56:31.009Z,14.30
2018-08-22T23:59:01.470Z,14.20
